Time;durP1;ratioP1;P1;durP2;ratioP2;P2;SDS_P1;SDS_P2;PMS_P1;PMS_P2;Temp;Humidity;BMP_temperature;BMP_pressure;BME280_temperature;BME280_humidity;BME280_pressure;Samples;Min_cycle;Max_cycle;Signal;HPM_P1;HPM_P2
2023/05/15 00:01:00;;;;;;;12.20;11.30;;;12.80;99.90;;;;;;4980151;28;20548;-65
2023/05/15 00:03:28;;;;;;;13.20;12.10;;;12.70;99.90;;;;;;4978669;28;20465;-66
2023/05/15 00:05:57;;;;;;;13.10;12.00;;;12.70;99.90;;;;;;4978698;28;20489;-66
2023/05/15 00:08:25;;;;;;;13.57;12.43;;;12.70;99.90;;;;;;4979327;28;20486;-66
2023/05/15 00:10:54;;;;;;;13.10;12.00;;;12.60;99.90;;;;;;4975333;28;20476;-66
2023/05/15 00:13:29;;;;;;;13.40;12.40;;;12.60;99.90;;;;;;4977872;28;20933;-64
2023/05/15 00:15:57;;;;;;;13.43;12.50;;;12.50;99.90;;;;;;4979955;28;20947;-65
2023/05/15 00:18:25;;;;;;;12.90;11.93;;;12.50;99.90;;;;;;4977954;28;20555;-65
2023/05/15 00:20:53;;;;;;;13.77;12.67;;;12.50;99.90;;;;;;4975741;28;20488;-65
2023/05/15 00:23:21;;;;;;;13.73;12.63;;;12.40;99.90;;;;;;4977686;28;20474;-64
2023/05/15 00:25:49;;;;;;;13.37;12.27;;;12.40;99.90;;;;;;4978852;28;20966;-66
2023/05/15 00:28:18;;;;;;;13.80;12.70;;;12.30;99.90;;;;;;4978360;28;20494;-64
2023/05/15 00:30:46;;;;;;;12.73;11.73;;;12.30;99.90;;;;;;4978666;28;20477;-66
2023/05/15 00:33:15;;;;;;;13.27;12.17;;;12.30;99.90;;;;;;4972551;28;20481;-65
2023/05/15 00:35:44;;;;;;;12.87;11.87;;;12.30;99.90;;;;;;4973644;28;20556;-65
2023/05/15 00:38:12;;;;;;;12.90;11.80;;;12.20;99.90;;;;;;4973874;28;20512;-64
2023/05/15 00:40:42;;;;;;;13.60;12.53;;;12.20;99.90;;;;;;4977147;28;20509;-65
2023/05/15 00:43:11;;;;;;;14.07;13.00;;;12.20;99.90;;;;;;4970331;28;21001;-65
2023/05/15 00:45:43;;;;;;;14.70;13.60;;;12.20;99.90;;;;;;4975621;28;20505;-65
2023/05/15 00:48:11;;;;;;;13.50;12.30;;;12.20;99.90;;;;;;4978038;28;20493;-64
2023/05/15 00:50:41;;;;;;;13.70;12.67;;;12.20;99.90;;;;;;4979085;28;20505;-64
2023/05/15 00:53:10;;;;;;;13.97;12.97;;;12.10;99.90;;;;;;4977941;28;20492;-64
2023/05/15 00:55:40;;;;;;;14.10;13.00;;;12.10;99.90;;;;;;4980172;28;20467;-64
2023/05/15 00:58:10;;;;;;;12.83;11.90;;;12.10;99.90;;;;;;4982158;28;20577;-65
2023/05/15 01:00:42;;;;;;;13.77;12.60;;;12.10;99.90;;;;;;4973461;28;20488;-64
2023/05/15 01:03:10;;;;;;;14.40;13.30;;;12.10;99.90;;;;;;4984695;28;20898;-64
2023/05/15 01:05:38;;;;;;;15.17;13.87;;;12.10;99.90;;;;;;4981180;28;20521;-64
2023/05/15 01:08:16;;;;;;;14.47;13.37;;;12.10;99.90;;;;;;4983193;28;20494;-64
2023/05/15 01:10:45;;;;;;;14.70;13.50;;;12.10;99.90;;;;;;4982239;28;20480;-64
2023/05/15 01:13:14;;;;;;;14.10;12.97;;;12.10;99.90;;;;;;4982532;28;20843;-64
2023/05/15 01:15:43;;;;;;;14.33;13.23;;;12.10;99.90;;;;;;4981448;28;20477;-65
2023/05/15 01:18:11;;;;;;;14.40;13.20;;;12.10;99.90;;;;;;4983818;28;20501;-64
2023/05/15 01:20:58;;;;;;;14.77;13.60;;;12.10;99.90;;;;;;4983307;28;21018;-64
2023/05/15 01:23:38;;;;;;;15.03;13.80;;;12.10;99.90;;;;;;4982067;28;20480;-64
2023/05/15 01:26:46;;;;;;;14.77;13.47;;;12.10;99.90;;;;;;4980103;28;21481;-64
2023/05/15 01:29:23;;;;;;;14.80;13.60;;;12.10;99.90;;;;;;4982355;28;20495;-64
2023/05/15 01:31:57;;;;;;;14.77;13.70;;;12.10;99.90;;;;;;4981364;28;21008;-64
2023/05/15 01:34:33;;;;;;;14.67;13.30;;;12.00;99.90;;;;;;4980776;28;20922;-64
2023/05/15 01:37:04;;;;;;;15.43;14.23;;;12.00;99.90;;;;;;4984246;28;20500;-66
2023/05/15 01:39:35;;;;;;;15.53;14.00;;;11.90;99.90;;;;;;4983381;28;20829;-64
2023/05/15 01:42:07;;;;;;;14.40;13.20;;;11.90;99.90;;;;;;4983019;28;20461;-65
2023/05/15 01:44:43;;;;;;;14.73;13.50;;;11.80;99.90;;;;;;4980520;28;20558;-64
2023/05/15 01:47:17;;;;;;;14.20;13.10;;;11.80;99.90;;;;;;4984101;28;20498;-64
2023/05/15 01:49:47;;;;;;;15.80;14.27;;;11.70;99.90;;;;;;4982353;28;20496;-64
2023/05/15 01:52:18;;;;;;;15.07;13.77;;;11.70;99.90;;;;;;4984104;28;20478;-64
2023/05/15 01:54:47;;;;;;;15.20;13.80;;;11.70;99.90;;;;;;4980456;28;20476;-64
2023/05/15 01:57:17;;;;;;;15.93;14.63;;;11.70;99.90;;;;;;4983967;28;20495;-65
2023/05/15 01:59:46;;;;;;;14.43;13.30;;;11.70;99.90;;;;;;4979258;28;20929;-65
2023/05/15 02:02:15;;;;;;;14.67;13.33;;;11.70;99.90;;;;;;4982965;28;20479;-64
2023/05/15 02:04:44;;;;;;;14.80;13.57;;;11.70;99.90;;;;;;4983307;28;20469;-65
2023/05/15 02:07:13;;;;;;;15.43;14.00;;;11.60;99.90;;;;;;4981627;28;20512;-64
2023/05/15 02:09:42;;;;;;;15.10;13.90;;;11.60;99.90;;;;;;4976758;28;20490;-65
2023/05/15 02:12:11;;;;;;;14.83;13.60;;;11.60;99.90;;;;;;4981881;28;20481;-65
2023/05/15 02:14:41;;;;;;;14.83;13.63;;;11.50;99.90;;;;;;4980812;28;21057;-65
2023/05/15 02:17:10;;;;;;;15.70;14.40;;;11.50;99.90;;;;;;4983483;28;20515;-65
2023/05/15 02:19:38;;;;;;;14.83;13.73;;;11.50;99.90;;;;;;4979371;28;20876;-64
2023/05/15 02:22:06;;;;;;;14.87;13.70;;;11.50;99.90;;;;;;4981852;28;20469;-65
2023/05/15 02:24:34;;;;;;;16.10;14.80;;;11.50;99.90;;;;;;4982252;28;20754;-64
2023/05/15 02:27:08;;;;;;;15.20;13.90;;;11.50;99.90;;;;;;4983669;28;20872;-64
2023/05/15 02:29:48;;;;;;;15.07;13.77;;;11.40;99.90;;;;;;4979514;28;20488;-65
2023/05/15 02:32:22;;;;;;;15.57;14.10;;;11.50;99.90;;;;;;4981496;28;20488;-64
2023/05/15 02:35:02;;;;;;;14.97;13.77;;;11.40;99.90;;;;;;4979509;28;20489;-64
2023/05/15 02:37:34;;;;;;;14.57;13.27;;;11.40;99.90;;;;;;4981344;28;20901;-65
2023/05/15 02:40:05;;;;;;;16.37;14.90;;;11.40;99.90;;;;;;4979950;28;20477;-64
2023/05/15 02:42:35;;;;;;;15.07;13.93;;;11.40;99.90;;;;;;4978155;28;20480;-64
2023/05/15 02:45:05;;;;;;;14.87;13.57;;;11.40;99.90;;;;;;4982435;28;20469;-64
2023/05/15 02:47:36;;;;;;;15.50;14.20;;;11.30;99.90;;;;;;4981176;28;20500;-64
2023/05/15 02:50:05;;;;;;;15.77;14.30;;;11.30;99.90;;;;;;4980075;28;20484;-64
2023/05/15 02:52:34;;;;;;;15.97;14.70;;;11.30;99.90;;;;;;4980311;28;20473;-64
2023/05/15 02:55:02;;;;;;;16.23;14.93;;;11.30;99.90;;;;;;4979958;28;20488;-65
2023/05/15 02:57:30;;;;;;;16.30;14.77;;;11.20;99.90;;;;;;4979761;28;20481;-65
2023/05/15 02:59:58;;;;;;;16.90;15.53;;;11.20;99.90;;;;;;4981133;28;20480;-65
2023/05/15 03:02:26;;;;;;;16.50;15.10;;;11.20;99.90;;;;;;4981418;28;20556;-65
2023/05/15 03:04:55;;;;;;;16.23;14.93;;;11.20;99.90;;;;;;4981691;28;21329;-64
2023/05/15 03:07:23;;;;;;;15.70;14.40;;;11.20;99.90;;;;;;4981019;28;21046;-64
2023/05/15 03:09:51;;;;;;;16.13;14.73;;;11.20;99.90;;;;;;4978860;28;20874;-65
2023/05/15 03:12:19;;;;;;;16.40;15.00;;;11.10;99.90;;;;;;4978804;28;20487;-65
2023/05/15 03:14:47;;;;;;;15.37;14.10;;;11.10;99.90;;;;;;4980591;28;20998;-65
2023/05/15 03:17:15;;;;;;;16.50;15.10;;;11.10;99.90;;;;;;4983118;28;20493;-64
2023/05/15 03:19:43;;;;;;;16.87;15.37;;;11.10;99.90;;;;;;4976747;28;20580;-65
2023/05/15 03:22:13;;;;;;;16.53;15.20;;;11.10;99.90;;;;;;4980382;28;20492;-65
2023/05/15 03:24:41;;;;;;;16.27;14.87;;;11.00;99.90;;;;;;4980167;28;20485;-65
2023/05/15 03:27:09;;;;;;;16.20;14.90;;;11.00;99.90;;;;;;4979369;28;20867;-65
2023/05/15 03:29:37;;;;;;;18.17;16.67;;;11.00;99.90;;;;;;4979042;28;20489;-65
2023/05/15 03:32:05;;;;;;;16.33;15.03;;;11.00;99.90;;;;;;4979729;28;20473;-65
2023/05/15 03:34:33;;;;;;;16.50;15.10;;;11.00;99.90;;;;;;4982588;28;20457;-65
2023/05/15 03:37:01;;;;;;;17.30;15.83;;;10.90;99.90;;;;;;4978795;28;21021;-65
2023/05/15 03:39:30;;;;;;;18.20;16.80;;;10.90;99.90;;;;;;4982217;28;20488;-65
2023/05/15 03:42:01;;;;;;;16.63;15.27;;;10.90;99.90;;;;;;4986857;28;20465;-65
2023/05/15 03:44:29;;;;;;;17.73;15.97;;;10.90;99.90;;;;;;4984496;28;20999;-65
2023/05/15 03:46:57;;;;;;;16.87;15.57;;;10.80;99.90;;;;;;4981889;28;21025;-65
2023/05/15 03:49:25;;;;;;;16.83;15.47;;;10.80;99.90;;;;;;4977462;28;20504;-65
2023/05/15 03:51:56;;;;;;;17.17;15.80;;;10.80;99.90;;;;;;4978017;28;20486;-65
2023/05/15 03:54:24;;;;;;;17.17;15.67;;;10.80;99.90;;;;;;4979860;28;20477;-65
2023/05/15 03:56:53;;;;;;;17.37;15.87;;;10.80;99.90;;;;;;4973276;28;20490;-65
2023/05/15 03:59:21;;;;;;;18.30;16.80;;;10.80;99.90;;;;;;4979633;28;21041;-65
2023/05/15 04:01:49;;;;;;;17.80;16.40;;;10.80;99.90;;;;;;4984715;28;20484;-65
2023/05/15 04:04:32;;;;;;;19.50;17.77;;;10.70;99.90;;;;;;5001960;28;20477;-65
2023/05/15 04:07:00;;;;;;;17.27;15.77;;;10.70;99.90;;;;;;4998321;28;20490;-65
2023/05/15 04:09:28;;;;;;;18.37;16.77;;;10.70;99.90;;;;;;4989928;28;20507;-65
2023/05/15 04:11:57;;;;;;;18.83;17.23;;;10.70;99.90;;;;;;4983496;28;20488;-65
2023/05/15 04:14:25;;;;;;;18.33;16.73;;;10.70;99.90;;;;;;4979889;28;20468;-65
2023/05/15 04:16:53;;;;;;;18.13;16.53;;;10.70;99.90;;;;;;4979678;28;20860;-65
2023/05/15 04:19:21;;;;;;;17.30;15.80;;;10.70;99.90;;;;;;4979380;28;20487;-65
2023/05/15 04:21:49;;;;;;;19.10;17.40;;;10.70;99.90;;;;;;4978277;28;20473;-65
2023/05/15 04:24:17;;;;;;;18.93;17.30;;;10.70;99.90;;;;;;4974671;28;21005;-65
2023/05/15 04:26:45;;;;;;;19.40;17.67;;;10.80;99.90;;;;;;4977518;28;20502;-64
2023/05/15 04:29:14;;;;;;;18.73;17.03;;;10.90;99.90;;;;;;4972646;28;20502;-64
2023/05/15 04:31:44;;;;;;;20.47;18.73;;;10.90;99.90;;;;;;4974007;28;20478;-65
2023/05/15 04:34:12;;;;;;;19.00;17.30;;;10.90;99.90;;;;;;4978862;28;20552;-65
2023/05/15 04:36:40;;;;;;;18.60;17.00;;;10.90;99.90;;;;;;4975221;28;20497;-65
2023/05/15 04:39:10;;;;;;;18.33;16.73;;;11.00;99.90;;;;;;4976867;28;20547;-64
2023/05/15 04:41:37;;;;;;;19.50;17.60;;;11.00;99.90;;;;;;4976101;28;20464;-65
2023/05/15 04:44:06;;;;;;;18.83;17.10;;;11.10;99.90;;;;;;4977405;28;20495;-64
2023/05/15 04:46:36;;;;;;;18.40;16.70;;;11.10;99.90;;;;;;4975707;28;20497;-65
2023/05/15 04:49:05;;;;;;;19.63;17.73;;;11.10;99.90;;;;;;4975844;28;20492;-64
2023/05/15 04:51:33;;;;;;;19.23;17.63;;;11.20;99.90;;;;;;4976223;28;20477;-65
2023/05/15 04:54:01;;;;;;;18.40;16.80;;;11.20;99.90;;;;;;4974573;28;20480;-63
2023/05/15 04:56:29;;;;;;;19.90;18.07;;;11.20;99.90;;;;;;4966368;28;20472;-63
2023/05/15 04:58:57;;;;;;;18.70;17.20;;;11.30;99.90;;;;;;4970301;28;20493;-63
2023/05/15 05:01:26;;;;;;;19.03;17.33;;;11.30;99.90;;;;;;4980269;28;20476;-64
2023/05/15 05:03:56;;;;;;;18.67;17.07;;;11.40;99.90;;;;;;4975559;28;20914;-63
2023/05/15 05:06:24;;;;;;;20.13;18.43;;;11.40;99.90;;;;;;4966195;28;20489;-64
2023/05/15 05:08:52;;;;;;;18.17;16.57;;;11.50;99.90;;;;;;4962278;28;20539;-63
2023/05/15 05:11:20;;;;;;;18.13;16.33;;;11.50;99.90;;;;;;4973549;28;20465;-64
2023/05/15 05:13:49;;;;;;;18.30;16.70;;;11.60;99.90;;;;;;4972115;28;20473;-64
2023/05/15 05:16:17;;;;;;;19.10;17.30;;;11.70;99.90;;;;;;4978978;28;20701;-63
2023/05/15 05:18:45;;;;;;;19.30;17.43;;;11.70;99.90;;;;;;4976463;28;20494;-64
2023/05/15 05:21:15;;;;;;;18.67;17.07;;;11.80;99.90;;;;;;4972662;28;20473;-63
2023/05/15 05:23:43;;;;;;;18.70;17.20;;;11.80;99.90;;;;;;4976778;28;20485;-65
2023/05/15 05:26:11;;;;;;;17.43;16.03;;;11.90;99.90;;;;;;4975384;28;20908;-63
2023/05/15 05:28:39;;;;;;;18.90;17.30;;;12.00;99.90;;;;;;4974296;28;20477;-64
2023/05/15 05:31:09;;;;;;;18.57;16.77;;;12.10;99.90;;;;;;4973124;28;20465;-63
2023/05/15 05:33:37;;;;;;;16.70;15.30;;;12.20;99.90;;;;;;4976133;28;20473;-63
2023/05/15 05:36:06;;;;;;;17.97;16.33;;;12.20;99.90;;;;;;4977940;28;20476;-64
2023/05/15 05:38:36;;;;;;;17.23;15.73;;;12.30;99.90;;;;;;4974164;28;20474;-63
2023/05/15 05:41:04;;;;;;;15.70;14.33;;;12.40;99.90;;;;;;4969250;28;20474;-62
2023/05/15 05:43:32;;;;;;;17.60;15.90;;;12.50;99.90;;;;;;4977481;28;20462;-63
2023/05/15 05:46:01;;;;;;;18.10;16.60;;;12.50;99.90;;;;;;4975862;28;20477;-64
2023/05/15 05:48:29;;;;;;;18.70;16.90;;;12.60;99.90;;;;;;4977764;28;20848;-64
2023/05/15 05:50:58;;;;;;;19.53;17.77;;;12.70;99.90;;;;;;4963994;28;20479;-66
2023/05/15 05:53:26;;;;;;;18.30;16.80;;;12.70;99.90;;;;;;4961352;28;20484;-66
2023/05/15 05:55:55;;;;;;;18.60;16.90;;;12.70;99.90;;;;;;4966023;28;20478;-65
2023/05/15 05:58:23;;;;;;;19.20;17.50;;;12.80;99.90;;;;;;4965668;28;20495;-64
2023/05/15 06:00:53;;;;;;;17.70;16.10;;;12.90;99.90;;;;;;4972278;28;20596;-67
2023/05/15 06:03:21;;;;;;;16.20;14.73;;;13.00;99.90;;;;;;4981187;28;21058;-65
2023/05/15 06:05:50;;;;;;;15.10;13.90;;;13.10;99.90;;;;;;4975459;28;20519;-65
2023/05/15 06:08:18;;;;;;;16.83;15.37;;;13.10;99.90;;;;;;4964913;28;20509;-66
2023/05/15 06:10:46;;;;;;;16.90;15.50;;;13.20;99.90;;;;;;4978303;28;21263;-65
2023/05/15 06:13:16;;;;;;;17.83;16.23;;;13.30;99.90;;;;;;4973863;28;20480;-66
2023/05/15 06:15:45;;;;;;;17.60;16.07;;;13.30;99.90;;;;;;4976199;28;20476;-66
2023/05/15 06:18:13;;;;;;;19.53;17.87;;;13.40;99.90;;;;;;4971144;28;20493;-64
2023/05/15 06:20:42;;;;;;;18.37;16.87;;;13.40;99.90;;;;;;4972006;28;20466;-68
2023/05/15 06:23:10;;;;;;;17.03;15.63;;;13.50;99.90;;;;;;4968196;28;20579;-65
2023/05/15 06:25:38;;;;;;;17.77;16.17;;;13.60;99.90;;;;;;4974403;28;20469;-65
2023/05/15 06:28:06;;;;;;;15.80;14.50;;;13.70;99.90;;;;;;4979924;28;20515;-64
2023/05/15 06:30:35;;;;;;;14.97;13.63;;;13.80;99.90;;;;;;4981864;28;21021;-67
2023/05/15 06:33:03;;;;;;;15.47;14.17;;;13.90;99.90;;;;;;4974883;28;20480;-66
2023/05/15 06:35:31;;;;;;;13.20;12.20;;;14.00;99.90;;;;;;4970539;28;20481;-65
2023/05/15 06:37:59;;;;;;;12.53;11.40;;;14.10;99.90;;;;;;4974585;28;21011;-65
2023/05/15 06:40:27;;;;;;;12.53;11.43;;;14.20;99.90;;;;;;4970475;28;20485;-66
2023/05/15 06:42:58;;;;;;;20.77;13.90;;;14.30;99.90;;;;;;4973776;28;20543;-66
2023/05/15 06:45:26;;;;;;;13.03;11.83;;;14.40;99.90;;;;;;4967944;28;20855;-66
2023/05/15 06:47:56;;;;;;;12.60;11.30;;;14.50;99.90;;;;;;4970501;28;20493;-65
2023/05/15 06:50:28;;;;;;;12.50;11.40;;;14.60;99.90;;;;;;4972663;28;20493;-65
2023/05/15 06:52:56;;;;;;;12.10;10.90;;;14.70;99.90;;;;;;4973964;28;20481;-65
2023/05/15 06:55:24;;;;;;;12.03;11.03;;;14.80;99.90;;;;;;4973165;28;20476;-66
2023/05/15 06:57:52;;;;;;;11.20;10.30;;;14.90;99.90;;;;;;4967777;28;20548;-64
2023/05/15 07:00:21;;;;;;;11.33;10.53;;;14.90;99.90;;;;;;4967062;28;20485;-66
2023/05/15 07:02:49;;;;;;;10.77;9.97;;;15.10;99.90;;;;;;4976265;28;20473;-64
2023/05/15 07:05:18;;;;;;;11.83;10.73;;;15.10;99.90;;;;;;4974737;28;20472;-66
2023/05/15 07:07:46;;;;;;;10.40;9.53;;;15.20;99.90;;;;;;4973388;28;20952;-65
2023/05/15 07:10:14;;;;;;;10.43;9.57;;;15.30;99.90;;;;;;4975593;28;20561;-66
2023/05/15 07:12:42;;;;;;;10.70;9.80;;;15.40;99.90;;;;;;4968891;28;21010;-66
2023/05/15 07:15:10;;;;;;;9.63;8.80;;;15.50;99.90;;;;;;4974355;28;20845;-65
2023/05/15 07:17:38;;;;;;;10.87;9.97;;;15.50;99.90;;;;;;4972527;28;20493;-64
2023/05/15 07:20:07;;;;;;;9.10;8.30;;;15.60;99.90;;;;;;4974305;28;20510;-66
2023/05/15 07:22:37;;;;;;;8.10;7.50;;;15.70;99.90;;;;;;4974006;28;20561;-66
2023/05/15 07:25:11;;;;;;;8.30;7.70;;;15.80;99.90;;;;;;4970303;28;20544;-66
2023/05/15 07:27:42;;;;;;;6.90;6.40;;;16.00;99.90;;;;;;4974253;28;20490;-65
2023/05/15 07:30:11;;;;;;;9.20;7.20;;;16.10;99.90;;;;;;4972344;28;20496;-66
2023/05/15 07:32:39;;;;;;;6.73;6.13;;;16.20;99.90;;;;;;4974357;28;20556;-66
2023/05/15 07:35:07;;;;;;;6.73;6.13;;;16.20;99.90;;;;;;4972696;28;21054;-65
2023/05/15 07:37:37;;;;;;;6.97;6.40;;;16.40;99.90;;;;;;4972247;28;20489;-66
2023/05/15 07:40:06;;;;;;;9.93;6.77;;;16.40;99.90;;;;;;4971122;28;20487;-66
2023/05/15 07:42:34;;;;;;;7.03;6.50;;;16.50;99.90;;;;;;4970974;28;20485;-66
2023/05/15 07:45:02;;;;;;;6.10;5.70;;;16.50;99.90;;;;;;4976321;28;20476;-66
2023/05/15 07:47:30;;;;;;;7.00;5.97;;;16.60;99.90;;;;;;4973392;28;20498;-66
2023/05/15 07:49:58;;;;;;;6.33;5.83;;;16.60;99.90;;;;;;4971895;28;20621;-65
2023/05/15 07:52:26;;;;;;;5.70;5.20;;;16.60;99.90;;;;;;4972626;28;20496;-65
2023/05/15 07:54:55;;;;;;;5.73;5.23;;;16.80;99.90;;;;;;4972040;28;20470;-65
2023/05/15 07:57:24;;;;;;;6.70;6.10;;;16.90;99.90;;;;;;4972663;28;20595;-65
2023/05/15 07:59:52;;;;;;;5.70;5.20;;;17.00;99.90;;;;;;4972241;28;20492;-65
2023/05/15 08:02:20;;;;;;;5.97;5.37;;;17.10;99.90;;;;;;4972410;28;20994;-65
2023/05/15 08:04:48;;;;;;;5.87;5.47;;;17.20;99.90;;;;;;4976123;28;20560;-65
2023/05/15 08:07:16;;;;;;;6.03;5.37;;;17.30;99.90;;;;;;4973018;28;20494;-65
2023/05/15 08:09:45;;;;;;;5.60;4.97;;;17.40;99.90;;;;;;4977876;28;20479;-65
2023/05/15 08:12:19;;;;;;;5.60;5.07;;;17.40;99.90;;;;;;4978584;28;20473;-65
2023/05/15 08:14:49;;;;;;;5.30;4.90;;;17.50;99.90;;;;;;4974661;28;20476;-65
2023/05/15 08:17:17;;;;;;;5.97;5.50;;;17.60;99.90;;;;;;4967682;28;20500;-65
2023/05/15 08:19:46;;;;;;;5.03;4.63;;;17.70;99.90;;;;;;4968073;28;20533;-65
2023/05/15 08:22:15;;;;;;;5.77;5.20;;;17.80;99.90;;;;;;4973269;28;20477;-65
2023/05/15 08:24:43;;;;;;;5.00;4.60;;;17.90;99.90;;;;;;4971811;28;20477;-65
2023/05/15 08:27:11;;;;;;;7.00;4.63;;;18.00;99.90;;;;;;4962782;28;21267;-65
2023/05/15 08:29:41;;;;;;;5.13;4.70;;;18.10;99.90;;;;;;4956683;28;20875;-65
2023/05/15 08:32:10;;;;;;;7.00;5.13;;;18.20;99.90;;;;;;4963273;28;20489;-65
2023/05/15 08:34:38;;;;;;;5.33;4.93;;;18.30;99.90;;;;;;4961966;28;20477;-65
2023/05/15 08:37:06;;;;;;;6.90;5.20;;;18.40;99.90;;;;;;4961715;28;20494;-65
2023/05/15 08:39:34;;;;;;;6.60;5.20;;;18.50;99.90;;;;;;4957009;28;20482;-65
2023/05/15 08:42:08;;;;;;;5.90;5.40;;;18.60;99.90;;;;;;4961930;28;20481;-64
2023/05/15 08:44:36;;;;;;;5.27;4.77;;;18.70;99.90;;;;;;4967995;28;20480;-65
2023/05/15 08:47:07;;;;;;;5.60;5.07;;;18.80;99.90;;;;;;4969337;28;20497;-65
2023/05/15 08:49:47;;;;;;;5.50;4.77;;;18.90;99.90;;;;;;4965154;28;22009;-65
2023/05/15 08:52:16;;;;;;;5.70;5.30;;;18.90;99.90;;;;;;4966882;28;20477;-65
2023/05/15 08:54:44;;;;;;;5.60;5.10;;;19.00;99.90;;;;;;4965375;28;20520;-65
2023/05/15 08:57:16;;;;;;;5.03;4.63;;;19.00;99.90;;;;;;4964507;28;20493;-64
2023/05/15 08:59:46;;;;;;;5.10;4.80;;;19.10;99.90;;;;;;4962017;28;20848;-65
2023/05/15 09:02:16;;;;;;;5.63;4.57;;;19.20;99.90;;;;;;4962382;28;20814;-64
2023/05/15 09:04:44;;;;;;;5.00;4.60;;;19.20;99.90;;;;;;4962214;28;20516;-65
2023/05/15 09:07:14;;;;;;;9.50;4.93;;;19.20;99.90;;;;;;4959319;28;20592;-65
2023/05/15 09:09:44;;;;;;;4.70;4.40;;;19.30;99.90;;;;;;4963858;28;20493;-65
2023/05/15 09:12:15;;;;;;;4.77;4.37;;;19.30;99.90;;;;;;4964498;28;20503;-65
2023/05/15 09:14:43;;;;;;;5.97;4.60;;;19.40;99.90;;;;;;4962419;28;20951;-65
2023/05/15 09:17:11;;;;;;;6.30;4.30;;;19.50;99.90;;;;;;4957226;28;20884;-65
2023/05/15 09:19:42;;;;;;;5.00;4.60;;;19.60;99.90;;;;;;4970189;28;20949;-65
2023/05/15 09:22:19;;;;;;;4.40;3.83;;;19.70;99.90;;;;;;4962555;28;20986;-64
2023/05/15 09:24:47;;;;;;;4.47;4.10;;;19.80;99.90;;;;;;4972141;28;20847;-65
2023/05/15 09:27:15;;;;;;;4.30;3.90;;;19.80;99.90;;;;;;4967954;28;20493;-64
2023/05/15 09:29:44;;;;;;;4.67;4.30;;;19.90;99.90;;;;;;4963625;28;20489;-65
2023/05/15 09:32:13;;;;;;;4.60;4.30;;;20.00;99.90;;;;;;4968209;28;21007;-65
2023/05/15 09:34:44;;;;;;;4.20;3.87;;;20.20;99.90;;;;;;4968905;28;20479;-65
2023/05/15 09:37:28;;;;;;;4.80;4.50;;;20.20;99.90;;;;;;4968037;28;20998;-65
2023/05/15 09:39:56;;;;;;;4.47;4.07;;;20.30;99.90;;;;;;4963642;28;20994;-64
2023/05/15 09:42:24;;;;;;;5.53;4.50;;;20.30;97.20;;;;;;4967796;28;20481;-65
2023/05/15 09:44:52;;;;;;;4.37;4.07;;;20.40;99.90;;;;;;4966518;28;20473;-65
2023/05/15 09:47:20;;;;;;;4.47;4.17;;;20.40;99.90;;;;;;4970825;28;20946;-65
2023/05/15 09:49:50;;;;;;;4.60;4.20;;;20.50;94.60;;;;;;4963662;28;20493;-65
2023/05/15 09:52:19;;;;;;;4.80;4.40;;;20.60;98.10;;;;;;4968346;28;20473;-65
2023/05/15 09:54:47;;;;;;;4.50;4.20;;;20.70;97.60;;;;;;4969747;28;21006;-65
2023/05/15 09:57:22;;;;;;;4.07;3.80;;;20.80;85.00;;;;;;4962517;28;20503;-65
2023/05/15 09:59:50;;;;;;;5.67;4.63;;;20.80;82.70;;;;;;4963603;28;20504;-65
2023/05/15 10:02:26;;;;;;;4.57;4.17;;;20.80;85.50;;;;;;4968551;28;20940;-65
2023/05/15 10:04:57;;;;;;;4.20;3.90;;;20.80;84.30;;;;;;4971716;28;20848;-65
2023/05/15 10:07:28;;;;;;;4.73;4.33;;;20.90;78.60;;;;;;4973307;28;20559;-65
2023/05/15 10:09:57;;;;;;;4.10;3.90;;;20.90;91.10;;;;;;4966430;28;20490;-64
2023/05/15 10:12:25;;;;;;;4.33;4.03;;;21.00;96.00;;;;;;4966066;28;20568;-64
2023/05/15 10:14:55;;;;;;;4.87;4.37;;;21.10;87.60;;;;;;4964601;28;20484;-65
2023/05/15 10:17:24;;;;;;;4.60;4.30;;;21.10;83.00;;;;;;4974808;28;20579;-65
2023/05/15 10:19:52;;;;;;;4.70;4.40;;;21.20;82.40;;;;;;4968472;28;20485;-65
2023/05/15 10:22:29;;;;;;;4.43;4.03;;;21.20;85.60;;;;;;4975183;28;20469;-65
2023/05/15 10:25:02;;;;;;;4.63;4.07;;;21.30;82.80;;;;;;4969222;28;20503;-65
2023/05/15 10:27:33;;;;;;;5.40;4.50;;;21.40;80.80;;;;;;4967555;28;20492;-65
2023/05/15 10:30:02;;;;;;;4.60;4.20;;;21.50;66.90;;;;;;4962011;28;20504;-65
2023/05/15 10:32:32;;;;;;;7.13;4.77;;;21.50;74.30;;;;;;4968287;28;20560;-65
2023/05/15 10:35:01;;;;;;;4.90;4.50;;;21.50;70.10;;;;;;4966890;28;20478;-65
2023/05/15 10:37:31;;;;;;;4.60;4.10;;;21.50;72.40;;;;;;4975662;28;20509;-65
2023/05/15 10:40:00;;;;;;;4.47;4.07;;;21.50;72.10;;;;;;4965189;28;20588;-65
2023/05/15 10:42:30;;;;;;;4.20;3.90;;;21.50;65.40;;;;;;4962497;28;20485;-65
2023/05/15 10:45:01;;;;;;;4.23;3.93;;;21.50;75.40;;;;;;4971466;28;20486;-65
2023/05/15 10:47:30;;;;;;;5.60;4.50;;;21.50;80.40;;;;;;4973228;28;20498;-64
2023/05/15 10:49:58;;;;;;;4.33;4.10;;;21.50;79.40;;;;;;4973996;28;20496;-63
2023/05/15 10:52:27;;;;;;;4.67;4.07;;;21.60;66.30;;;;;;4968657;28;20474;-64
2023/05/15 10:54:56;;;;;;;5.17;4.23;;;21.60;64.50;;;;;;4966428;28;20481;-64
2023/05/15 10:57:24;;;;;;;4.70;4.40;;;21.60;66.70;;;;;;4963399;28;20505;-63
2023/05/15 10:59:52;;;;;;;4.80;4.50;;;21.60;72.70;;;;;;4968242;28;20486;-64
2023/05/15 11:02:22;;;;;;;4.30;4.03;;;21.80;71.30;;;;;;4967785;28;20477;-64
2023/05/15 11:04:55;;;;;;;4.50;4.20;;;21.90;72.20;;;;;;4963859;28;20593;-65
2023/05/15 11:07:24;;;;;;;5.70;4.33;;;22.00;70.20;;;;;;4967323;28;20505;-64
2023/05/15 11:09:53;;;;;;;4.97;4.53;;;22.10;75.10;;;;;;4968586;28;20497;-64
2023/05/15 11:12:23;;;;;;;4.90;4.50;;;22.20;69.70;;;;;;4958790;28;20479;-64
2023/05/15 11:15:24;;;;;;;4.93;4.47;;;22.40;61.10;;;;;;4963067;28;20589;-64
2023/05/15 11:18:06;;;;;;;4.43;4.03;;;22.40;64.20;;;;;;4907116;29;20501;-64
2023/05/15 11:20:39;;;;;;;5.03;4.67;;;22.40;61.30;;;;;;4901299;28;20500;-64
2023/05/15 11:23:07;;;;;;;4.60;4.30;;;22.30;56.90;;;;;;4941026;28;20975;-63
2023/05/15 11:25:35;;;;;;;4.10;3.90;;;22.30;57.40;;;;;;4965399;28;20469;-63
2023/05/15 11:28:06;;;;;;;4.80;4.40;;;22.10;60.90;;;;;;4965700;28;21091;-63
2023/05/15 11:30:36;;;;;;;4.27;3.97;;;22.10;59.10;;;;;;4964318;28;20595;-63
2023/05/15 11:33:08;;;;;;;4.70;4.30;;;22.00;56.70;;;;;;4964739;28;20501;-64
2023/05/15 11:35:38;;;;;;;4.63;4.23;;;22.00;56.50;;;;;;4962837;28;20482;-63
2023/05/15 11:38:12;;;;;;;3.77;3.53;;;22.10;57.90;;;;;;4967714;28;20499;-64
2023/05/15 11:40:45;;;;;;;4.40;4.10;;;22.10;56.90;;;;;;4960825;28;20487;-63
2023/05/15 11:43:22;;;;;;;4.77;4.37;;;22.20;62.20;;;;;;4958158;28;21079;-63
2023/05/15 11:45:54;;;;;;;4.50;4.17;;;22.40;63.80;;;;;;4966518;28;20472;-63
2023/05/15 11:48:24;;;;;;;4.87;4.40;;;22.50;60.70;;;;;;4961145;28;20496;-63
2023/05/15 11:50:52;;;;;;;4.30;3.70;;;22.50;57.80;;;;;;4964473;28;20497;-64
2023/05/15 11:53:21;;;;;;;4.03;3.73;;;22.40;58.80;;;;;;4966351;28;20521;-63
2023/05/15 11:55:53;;;;;;;6.20;4.00;;;22.50;52.80;;;;;;4961216;28;20523;-63
2023/05/15 11:58:24;;;;;;;3.80;3.60;;;22.50;53.30;;;;;;4962589;28;20504;-63
2023/05/15 12:00:53;;;;;;;4.47;4.07;;;22.50;53.50;;;;;;4965157;28;20495;-63
2023/05/15 12:03:24;;;;;;;4.10;3.77;;;22.60;56.70;;;;;;4961060;28;20477;-63
2023/05/15 12:05:53;;;;;;;3.80;3.60;;;22.80;55.80;;;;;;4966928;28;20489;-64
2023/05/15 12:08:31;;;;;;;4.70;4.30;;;22.90;53.80;;;;;;4958406;28;20969;-63
2023/05/15 12:11:00;;;;;;;4.63;4.23;;;23.00;51.80;;;;;;4965720;28;20498;-64
2023/05/15 12:13:30;;;;;;;4.87;4.47;;;23.00;55.30;;;;;;4964827;28;20473;-63
2023/05/15 12:15:59;;;;;;;4.33;3.90;;;23.00;56.80;;;;;;4967116;28;20478;-64
2023/05/15 12:18:27;;;;;;;4.57;4.13;;;22.90;59.90;;;;;;4964374;28;21378;-63
2023/05/15 12:20:56;;;;;;;4.50;4.20;;;22.80;58.20;;;;;;4964845;28;20737;-63
2023/05/15 12:23:26;;;;;;;4.37;4.00;;;22.60;58.60;;;;;;4961581;28;20504;-63
2023/05/15 12:25:57;;;;;;;4.37;4.07;;;22.50;63.50;;;;;;4956362;28;20465;-65
2023/05/15 12:28:26;;;;;;;5.47;3.83;;;22.30;63.70;;;;;;4962105;28;20497;-65
2023/05/15 12:30:56;;;;;;;4.37;4.07;;;22.20;67.60;;;;;;4961937;28;20532;-65
2023/05/15 12:33:25;;;;;;;4.83;4.50;;;22.20;62.60;;;;;;4962548;28;20587;-63
2023/05/15 12:35:55;;;;;;;4.77;4.43;;;22.00;67.90;;;;;;4964243;28;20481;-64
2023/05/15 12:38:29;;;;;;;5.00;4.60;;;21.80;68.90;;;;;;4953784;28;20497;-64
2023/05/15 12:40:57;;;;;;;5.20;4.07;;;21.70;72.10;;;;;;4962947;28;20465;-64
2023/05/15 12:43:25;;;;;;;5.37;4.97;;;21.60;69.80;;;;;;4969216;28;20472;-64
2023/05/15 12:45:56;;;;;;;5.40;5.00;;;21.50;71.10;;;;;;4967388;28;20980;-64
2023/05/15 12:48:29;;;;;;;7.40;6.67;;;21.40;89.70;;;;;;4958412;28;20587;-65